Time;durP1;ratioP1;P1;durP2;ratioP2;P2;SDS_P1;SDS_P2;PMS_P1;PMS_P2;Temp;Humidity;BMP_temperature;BMP_pressure;BME280_temperature;BME280_humidity;BME280_pressure;Samples;Min_cycle;Max_cycle;Signal;HPM_P1;HPM_P2
2022/06/29 00:01:17;;;;;;;5.85;1.33;;;14.80;99.90;;;;;;5044209;28;20355;-70
2022/06/29 00:03:44;;;;;;;5.50;1.55;;;14.80;99.90;;;;;;5059829;28;20040;-71
2022/06/29 00:06:11;;;;;;;3.58;1.25;;;14.80;99.90;;;;;;5043370;28;20240;-69
2022/06/29 00:08:36;;;;;;;2.53;1.25;;;14.80;99.90;;;;;;5043327;28;20025;-70
2022/06/29 00:11:03;;;;;;;5.40;0.90;;;14.80;99.90;;;;;;5042646;28;20049;-70
2022/06/29 00:13:29;;;;;;;4.53;1.17;;;14.80;99.90;;;;;;5059278;28;20025;-69
2022/06/29 00:15:54;;;;;;;3.33;0.85;;;14.80;99.90;;;;;;5042742;28;20116;-68
2022/06/29 00:18:20;;;;;;;1.00;0.50;;;14.80;99.90;;;;;;5043135;28;20026;-68
2022/06/29 00:20:46;;;;;;;3.28;0.80;;;14.80;99.90;;;;;;5043540;28;20104;-69
2022/06/29 00:23:11;;;;;;;1.58;0.60;;;14.90;99.90;;;;;;5042583;28;20052;-70
2022/06/29 00:25:37;;;;;;;1.85;0.75;;;14.90;99.90;;;;;;5043711;28;20025;-70
2022/06/29 00:28:03;;;;;;;1.23;0.50;;;15.00;99.90;;;;;;5059350;28;20025;-69
2022/06/29 00:30:29;;;;;;;2.75;0.60;;;15.00;99.90;;;;;;5058218;28;20029;-70
2022/06/29 00:32:54;;;;;;;1.00;0.50;;;15.00;99.90;;;;;;5043842;28;20044;-69
2022/06/29 00:35:20;;;;;;;1.73;0.50;;;15.00;99.90;;;;;;5043648;28;20308;-69
2022/06/29 00:37:46;;;;;;;1.30;0.73;;;15.00;99.90;;;;;;5043896;28;20093;-68
2022/06/29 00:40:12;;;;;;;1.88;0.80;;;15.00;99.90;;;;;;5042717;28;20021;-70
2022/06/29 00:42:37;;;;;;;1.33;0.50;;;14.90;99.90;;;;;;5042938;28;20029;-69
2022/06/29 00:45:04;;;;;;;0.60;0.55;;;14.90;99.90;;;;;;5059154;28;20144;-69
2022/06/29 00:47:29;;;;;;;2.50;0.68;;;14.80;99.90;;;;;;5043706;28;20037;-69
2022/06/29 00:49:56;;;;;;;1.50;0.70;;;14.80;99.90;;;;;;5043504;28;20064;-69
2022/06/29 00:52:24;;;;;;;2.28;0.40;;;14.80;99.90;;;;;;5042455;28;20099;-70
2022/06/29 00:54:54;;;;;;;1.45;0.40;;;14.90;99.90;;;;;;5044092;28;20032;-70
2022/06/29 00:57:24;;;;;;;1.30;0.50;;;14.90;99.90;;;;;;5058699;28;20089;-69
2022/06/29 00:59:52;;;;;;;0.45;0.40;;;15.00;99.90;;;;;;5042270;28;20017;-70
2022/06/29 01:02:21;;;;;;;3.95;0.40;;;15.00;99.90;;;;;;5043899;28;20033;-70
2022/06/29 01:04:47;;;;;;;5.68;0.50;;;15.10;99.90;;;;;;5058168;28;20029;-69
2022/06/29 01:07:15;;;;;;;0.98;0.45;;;15.00;99.90;;;;;;5042391;28;20021;-71
2022/06/29 01:09:41;;;;;;;2.25;0.40;;;15.00;99.90;;;;;;5042126;28;20022;-70
2022/06/29 01:12:07;;;;;;;0.70;0.50;;;15.00;99.90;;;;;;5043510;28;20063;-71
2022/06/29 01:14:33;;;;;;;1.65;0.47;;;15.00;99.90;;;;;;5043368;28;20037;-69
2022/06/29 01:16:59;;;;;;;0.73;0.30;;;15.00;99.90;;;;;;5043304;28;20029;-68
2022/06/29 01:19:24;;;;;;;2.58;0.50;;;15.00;99.90;;;;;;5043463;28;20044;-70
2022/06/29 01:21:52;;;;;;;1.48;0.20;;;15.10;99.90;;;;;;5043009;28;20036;-70
2022/06/29 01:24:20;;;;;;;0.68;0.30;;;15.10;99.90;;;;;;5042277;28;20017;-68
2022/06/29 01:26:45;;;;;;;2.63;0.40;;;15.10;99.90;;;;;;5043309;28;20033;-69
2022/06/29 01:29:11;;;;;;;1.40;0.40;;;15.20;99.90;;;;;;5043065;28;20017;-69
2022/06/29 01:31:37;;;;;;;3.25;0.50;;;15.20;99.90;;;;;;5041430;28;20341;-69
2022/06/29 01:34:02;;;;;;;1.45;0.38;;;15.20;99.90;;;;;;5042450;28;20025;-69
2022/06/29 01:36:28;;;;;;;1.00;0.38;;;15.20;99.90;;;;;;5043012;28;20117;-70
2022/06/29 01:38:54;;;;;;;2.38;0.57;;;15.20;99.90;;;;;;5043538;28;20032;-67
2022/06/29 01:41:20;;;;;;;1.70;0.60;;;15.10;99.90;;;;;;5043238;28;20305;-70
2022/06/29 01:43:45;;;;;;;2.42;0.90;;;15.10;99.90;;;;;;5058217;28;20033;-68
2022/06/29 01:46:11;;;;;;;1.70;0.77;;;15.00;99.90;;;;;;5041807;28;20028;-69
2022/06/29 01:48:37;;;;;;;1.95;0.75;;;14.90;99.90;;;;;;5041734;28;20036;-66
2022/06/29 01:51:02;;;;;;;2.10;0.60;;;14.90;99.90;;;;;;5041379;28;20064;-71
2022/06/29 01:53:28;;;;;;;3.00;1.00;;;14.80;99.90;;;;;;5044603;28;20029;-69
2022/06/29 01:55:55;;;;;;;4.38;0.98;;;14.80;99.90;;;;;;5046946;28;20036;-70
2022/06/29 01:58:20;;;;;;;10.55;1.77;;;14.70;99.90;;;;;;5046847;28;20268;-69
2022/06/29 02:00:46;;;;;;;10.48;1.75;;;14.80;99.90;;;;;;5046928;28;20112;-69
2022/06/29 02:03:12;;;;;;;6.40;1.55;;;14.80;99.90;;;;;;5046247;28;20044;-66
2022/06/29 02:05:37;;;;;;;9.07;1.48;;;14.80;99.90;;;;;;5046548;28;20044;-69
2022/06/29 02:08:04;;;;;;;5.53;1.50;;;14.80;99.90;;;;;;5061854;28;20025;-70
2022/06/29 02:10:30;;;;;;;9.15;1.70;;;14.70;99.90;;;;;;5062041;28;20331;-66
2022/06/29 02:12:56;;;;;;;11.20;2.10;;;14.60;99.90;;;;;;5061649;28;20055;-68
2022/06/29 02:15:23;;;;;;;9.77;2.05;;;14.50;99.90;;;;;;5061989;28;20120;-66
2022/06/29 02:17:50;;;;;;;9.60;1.90;;;14.40;99.90;;;;;;5061412;28;20018;-67
2022/06/29 02:20:16;;;;;;;3.45;1.48;;;14.30;99.90;;;;;;5044793;28;20035;-66
2022/06/29 02:22:41;;;;;;;8.70;1.90;;;14.30;99.90;;;;;;5046122;28;20052;-69
2022/06/29 02:25:08;;;;;;;9.43;1.80;;;14.20;99.90;;;;;;5061778;28;20312;-68
2022/06/29 02:27:37;;;;;;;8.00;2.03;;;14.30;99.90;;;;;;5045846;28;20320;-68
2022/06/29 02:30:03;;;;;;;10.23;1.80;;;14.30;99.90;;;;;;5045191;28;20029;-68
2022/06/29 02:35:14;;;;;;;8.35;1.98;;;14.20;99.90;;;;;;5044584;28;20112;-67
2022/06/29 02:37:40;;;;;;;14.60;2.17;;;14.00;99.90;;;;;;5061350;28;20020;-69
2022/06/29 02:40:06;;;;;;;11.75;2.03;;;14.00;99.90;;;;;;5045224;28;20036;-69
2022/06/29 02:42:32;;;;;;;16.05;2.42;;;14.00;99.90;;;;;;5061178;28;20043;-69
2022/06/29 02:44:58;;;;;;;11.55;2.58;;;13.90;99.90;;;;;;5046097;28;20300;-68
2022/06/29 02:47:24;;;;;;;9.90;2.03;;;13.90;99.90;;;;;;5044523;28;20093;-68
2022/06/29 02:49:49;;;;;;;13.20;2.33;;;13.90;99.90;;;;;;5045665;28;20061;-68
2022/06/29 02:52:15;;;;;;;11.13;2.42;;;13.90;99.90;;;;;;5044908;28;20057;-69
2022/06/29 02:54:41;;;;;;;9.95;2.15;;;13.80;99.90;;;;;;5044749;28;20036;-68
2022/06/29 02:57:06;;;;;;;7.82;2.05;;;13.90;99.90;;;;;;5046001;28;20028;-68
2022/06/29 02:59:32;;;;;;;9.75;2.13;;;13.90;99.90;;;;;;5044135;28;20244;-68
2022/06/29 03:01:57;;;;;;;8.90;2.10;;;13.90;99.90;;;;;;5044733;28;20272;-67
2022/06/29 03:04:23;;;;;;;13.02;2.63;;;13.90;99.90;;;;;;5060726;28;20029;-68
2022/06/29 03:06:49;;;;;;;9.30;2.35;;;13.90;99.90;;;;;;5060561;28;20301;-67
2022/06/29 03:09:14;;;;;;;16.85;3.30;;;14.00;99.90;;;;;;5043922;28;20033;-68
2022/06/29 03:11:40;;;;;;;13.20;2.75;;;13.90;99.90;;;;;;5045527;28;20127;-66
2022/06/29 03:14:06;;;;;;;16.50;2.65;;;13.90;99.90;;;;;;5045476;28;20033;-69
2022/06/29 03:16:31;;;;;;;16.98;3.58;;;14.00;99.90;;;;;;5060607;28;20022;-69
2022/06/29 03:18:57;;;;;;;12.80;2.33;;;14.00;99.90;;;;;;5045288;28;20029;-67
2022/06/29 03:21:23;;;;;;;10.73;2.53;;;14.00;99.90;;;;;;5044704;28;20049;-68
2022/06/29 03:23:48;;;;;;;12.18;2.33;;;14.00;99.90;;;;;;5060251;28;20037;-67
2022/06/29 03:26:14;;;;;;;10.90;2.40;;;14.00;99.90;;;;;;5061000;28;20017;-68
2022/06/29 03:28:40;;;;;;;12.82;3.35;;;13.90;99.90;;;;;;5044569;28;20048;-69
2022/06/29 03:31:05;;;;;;;11.30;3.28;;;13.90;99.90;;;;;;5044257;28;20100;-67
2022/06/29 03:33:31;;;;;;;11.20;2.60;;;14.00;99.90;;;;;;5042725;28;20079;-68
2022/06/29 03:35:57;;;;;;;14.10;2.67;;;14.00;99.90;;;;;;5060473;28;20040;-67
2022/06/29 03:38:23;;;;;;;11.95;2.50;;;14.00;99.90;;;;;;5043493;28;20028;-69
2022/06/29 03:40:49;;;;;;;16.17;2.75;;;14.00;99.90;;;;;;5043322;28;20327;-68
2022/06/29 03:43:14;;;;;;;12.57;2.40;;;14.00;99.90;;;;;;5059869;28;20026;-67
2022/06/29 03:45:40;;;;;;;11.55;2.60;;;13.90;99.90;;;;;;5044573;28;20052;-69
2022/06/29 03:48:06;;;;;;;13.38;3.33;;;13.90;99.90;;;;;;5059911;28;20029;-67
2022/06/29 03:50:32;;;;;;;12.30;2.20;;;13.90;99.90;;;;;;5043117;28;20045;-68
2022/06/29 03:52:58;;;;;;;19.13;3.50;;;13.90;99.90;;;;;;5044099;28;20092;-68
2022/06/29 03:55:24;;;;;;;14.63;3.30;;;13.90;99.90;;;;;;5042926;28;20029;-68
2022/06/29 03:57:49;;;;;;;17.17;2.88;;;13.80;99.90;;;;;;5042770;28;20096;-67
2022/06/29 04:00:15;;;;;;;15.73;3.40;;;13.80;99.90;;;;;;5043195;28;20033;-66
2022/06/29 04:02:41;;;;;;;20.42;2.75;;;13.80;99.90;;;;;;5059512;28;20037;-67
2022/06/29 04:05:07;;;;;;;14.35;3.30;;;13.90;99.90;;;;;;5043226;28;20052;-68
2022/06/29 04:07:33;;;;;;;18.08;3.63;;;13.80;99.90;;;;;;5060253;28;20037;-68
2022/06/29 04:09:59;;;;;;;19.00;3.35;;;13.90;99.90;;;;;;5042979;28;20316;-68
2022/06/29 04:12:34;;;;;;;16.25;2.85;;;13.90;99.90;;;;;;5043081;28;20104;-69
2022/06/29 04:15:01;;;;;;;14.27;3.47;;;13.90;99.90;;;;;;5059573;28;20258;-68
2022/06/29 04:17:27;;;;;;;13.82;2.67;;;13.90;99.90;;;;;;5025555;28;20316;-68
2022/06/29 04:19:52;;;;;;;11.95;2.90;;;13.90;99.90;;;;;;5043184;28;20021;-67
2022/06/29 04:22:19;;;;;;;12.88;3.05;;;13.90;99.90;;;;;;5044191;28;20026;-68
2022/06/29 04:24:45;;;;;;;17.35;3.10;;;13.80;99.90;;;;;;5044244;28;20017;-67
2022/06/29 04:27:11;;;;;;;19.40;3.30;;;13.80;99.90;;;;;;5042988;28;20312;-67
2022/06/29 04:29:37;;;;;;;14.63;3.50;;;13.80;99.90;;;;;;5059769;28;20093;-69
2022/06/29 04:32:03;;;;;;;16.15;3.75;;;13.90;99.90;;;;;;5043037;28;20029;-68
2022/06/29 04:34:29;;;;;;;15.93;3.03;;;13.90;99.90;;;;;;5041092;28;20410;-68
2022/06/29 04:36:56;;;;;;;15.70;3.38;;;13.90;99.90;;;;;;5043333;28;20025;-68
2022/06/29 04:39:22;;;;;;;21.55;3.35;;;13.90;99.90;;;;;;5042531;28;20346;-69
2022/06/29 04:41:48;;;;;;;14.55;3.40;;;14.00;99.90;;;;;;5026363;28;20381;-67
2022/06/29 04:44:14;;;;;;;11.50;3.20;;;14.00;99.90;;;;;;5044064;28;20243;-67
2022/06/29 04:46:40;;;;;;;20.85;3.42;;;14.00;99.90;;;;;;5058638;28;20014;-68
2022/06/29 04:49:06;;;;;;;17.10;3.25;;;14.10;99.90;;;;;;5042420;28;20029;-67
2022/06/29 04:51:33;;;;;;;17.15;3.00;;;14.00;99.90;;;;;;5043445;28;20331;-70
2022/06/29 04:54:00;;;;;;;21.88;3.15;;;14.00;99.90;;;;;;5042267;28;20052;-69
2022/06/29 04:56:29;;;;;;;23.05;3.65;;;14.00;99.90;;;;;;5059407;28;20021;-69
2022/06/29 04:58:56;;;;;;;16.35;4.00;;;14.00;99.90;;;;;;5042511;28;20029;-68
2022/06/29 05:01:22;;;;;;;20.42;3.42;;;14.20;99.90;;;;;;5042501;28;20359;-68
2022/06/29 05:03:49;;;;;;;18.13;3.50;;;14.20;99.90;;;;;;5043598;28;20244;-69
2022/06/29 05:06:15;;;;;;;14.30;3.58;;;14.20;99.90;;;;;;5026377;28;20025;-69
2022/06/29 05:08:41;;;;;;;16.33;3.10;;;14.30;99.90;;;;;;5043571;28;20024;-69
2022/06/29 05:11:07;;;;;;;16.15;3.10;;;14.40;99.90;;;;;;5043362;28;20204;-70
2022/06/29 05:13:32;;;;;;;18.58;3.10;;;14.30;99.90;;;;;;5041971;28;20399;-68
2022/06/29 05:15:58;;;;;;;18.00;3.28;;;14.30;99.90;;;;;;5041911;28;20216;-68
2022/06/29 05:18:24;;;;;;;20.95;3.05;;;14.40;99.90;;;;;;5042598;28;20033;-68
2022/06/29 05:20:50;;;;;;;14.18;3.15;;;14.40;99.90;;;;;;5058999;28;20244;-68
2022/06/29 05:23:16;;;;;;;19.25;3.83;;;14.40;99.90;;;;;;5042087;28;20071;-68
2022/06/29 05:25:41;;;;;;;25.23;4.00;;;14.40;99.90;;;;;;5043687;28;20029;-68
2022/06/29 05:28:08;;;;;;;16.75;3.15;;;14.50;99.90;;;;;;5044309;28;20025;-68
2022/06/29 05:30:34;;;;;;;17.17;3.10;;;14.40;99.90;;;;;;5047439;28;20204;-69
2022/06/29 05:33:00;;;;;;;20.00;3.03;;;14.50;99.90;;;;;;5047510;28;20080;-69
2022/06/29 05:35:29;;;;;;;18.88;3.65;;;14.50;99.90;;;;;;5061178;28;20036;-69
2022/06/29 05:37:54;;;;;;;23.27;3.88;;;14.50;99.90;;;;;;5047625;28;20212;-67
2022/06/29 05:40:20;;;;;;;21.35;3.58;;;14.60;99.90;;;;;;5046505;28;20057;-69
2022/06/29 05:42:46;;;;;;;15.73;3.58;;;14.60;99.90;;;;;;5046157;28;20028;-69
2022/06/29 05:45:12;;;;;;;16.88;3.42;;;14.60;99.90;;;;;;5047369;28;20174;-70
2022/06/29 05:47:37;;;;;;;19.52;3.75;;;14.60;99.90;;;;;;5047006;28;20040;-69
2022/06/29 05:50:03;;;;;;;20.17;3.65;;;14.60;99.90;;;;;;5046721;28;20301;-69
2022/06/29 05:52:29;;;;;;;24.73;4.25;;;14.50;99.90;;;;;;5046658;28;20029;-68
2022/06/29 05:54:54;;;;;;;14.98;3.25;;;14.50;99.90;;;;;;5062734;28;20080;-68
2022/06/29 05:57:20;;;;;;;24.60;4.43;;;14.40;99.90;;;;;;5047040;28;20024;-68
2022/06/29 05:59:47;;;;;;;27.88;4.07;;;14.40;99.90;;;;;;5047527;28;20032;-69
2022/06/29 06:02:13;;;;;;;18.92;4.32;;;14.40;99.90;;;;;;5046767;28;20084;-69
2022/06/29 06:04:39;;;;;;;15.77;3.38;;;14.40;99.90;;;;;;5062503;28;20075;-69
2022/06/29 06:07:05;;;;;;;27.17;4.18;;;14.60;99.90;;;;;;5045707;28;20017;-69
2022/06/29 06:09:32;;;;;;;17.85;3.72;;;14.70;99.90;;;;;;5047106;28;20025;-69
2022/06/29 06:11:58;;;;;;;22.60;4.10;;;14.80;99.90;;;;;;5045600;28;20053;-69
2022/06/29 06:14:24;;;;;;;16.10;3.40;;;14.90;99.90;;;;;;5062456;28;20029;-68
2022/06/29 06:16:50;;;;;;;24.05;3.88;;;15.00;99.90;;;;;;5061265;28;20220;-67
2022/06/29 06:19:16;;;;;;;17.23;3.80;;;15.00;99.90;;;;;;5046551;28;20110;-66
2022/06/29 06:21:41;;;;;;;22.88;4.57;;;15.10;99.90;;;;;;5044654;28;20296;-69
2022/06/29 06:24:07;;;;;;;11.82;2.80;;;15.20;99.90;;;;;;5046408;28;20035;-68
2022/06/29 06:26:33;;;;;;;21.35;4.05;;;15.30;99.90;;;;;;5046641;28;20104;-68
2022/06/29 06:28:59;;;;;;;19.88;3.50;;;15.40;99.90;;;;;;5062185;28;20057;-70
2022/06/29 06:31:25;;;;;;;17.77;3.67;;;15.50;99.90;;;;;;5046057;28;20026;-69
2022/06/29 06:33:51;;;;;;;19.10;3.10;;;15.60;99.90;;;;;;5045057;28;20025;-69
2022/06/29 06:36:17;;;;;;;17.33;3.30;;;15.70;99.90;;;;;;5043502;28;20073;-69
2022/06/29 06:38:42;;;;;;;13.43;3.13;;;15.80;99.90;;;;;;5057248;28;20028;-69
2022/06/29 06:41:24;;;;;;;19.38;3.30;;;15.90;99.90;;;;;;5027087;28;20053;-69
2022/06/29 06:43:53;;;;;;;19.77;3.50;;;15.90;99.90;;;;;;5044877;28;20025;-68
2022/06/29 06:46:19;;;;;;;18.65;4.45;;;16.00;99.90;;;;;;5075100;28;20105;-71
2022/06/29 06:48:46;;;;;;;25.50;3.83;;;16.00;99.90;;;;;;5064781;28;20301;-71
2022/06/29 06:51:12;;;;;;;13.88;3.20;;;16.20;99.90;;;;;;5037657;28;20096;-71
2022/06/29 06:53:38;;;;;;;15.85;3.25;;;16.20;99.90;;;;;;5043575;28;20025;-70
2022/06/29 06:56:06;;;;;;;18.42;3.88;;;16.20;99.90;;;;;;5043947;28;20029;-69
2022/06/29 06:58:32;;;;;;;30.10;4.85;;;16.20;99.90;;;;;;5043787;28;20263;-70
2022/06/29 07:00:58;;;;;;;25.17;3.88;;;16.30;99.90;;;;;;5044105;28;20026;-70
2022/06/29 07:03:24;;;;;;;35.08;3.97;;;16.40;99.90;;;;;;5043672;28;20033;-68
2022/06/29 07:05:49;;;;;;;15.93;3.50;;;16.50;99.90;;;;;;5024676;28;20201;-66
2022/06/29 07:08:15;;;;;;;19.38;4.10;;;16.50;99.90;;;;;;5041801;28;20037;-69
2022/06/29 07:10:40;;;;;;;15.20;3.13;;;16.50;99.90;;;;;;5041564;28;20025;-69
2022/06/29 07:13:06;;;;;;;20.38;3.83;;;16.40;99.90;;;;;;5042513;28;20084;-71
2022/06/29 07:15:32;;;;;;;19.02;3.55;;;16.40;99.90;;;;;;5042762;28;20026;-69
2022/06/29 07:17:57;;;;;;;26.00;3.78;;;16.70;99.90;;;;;;5040789;28;20099;-70
2022/06/29 07:20:28;;;;;;;14.18;3.20;;;16.80;99.90;;;;;;5042624;28;20040;-71
2022/06/29 07:22:54;;;;;;;13.43;3.17;;;16.80;99.90;;;;;;5042580;28;20217;-68
2022/06/29 07:25:19;;;;;;;23.17;3.28;;;16.80;99.90;;;;;;5058874;28;20271;-69
2022/06/29 07:27:45;;;;;;;13.95;4.10;;;16.80;99.90;;;;;;5059199;28;20407;-67
2022/06/29 07:30:11;;;;;;;17.30;3.53;;;16.90;99.90;;;;;;5041412;28;20029;-69
2022/06/29 07:32:37;;;;;;;18.60;3.17;;;17.00;99.90;;;;;;5041926;28;20043;-70
2022/06/29 07:35:03;;;;;;;21.23;3.53;;;17.20;99.90;;;;;;5042306;28;20084;-70
2022/06/29 07:37:29;;;;;;;14.85;3.50;;;17.20;99.90;;;;;;5041786;28;20033;-70
2022/06/29 07:39:55;;;;;;;15.75;3.15;;;17.00;99.90;;;;;;5042943;28;20019;-73
2022/06/29 07:42:21;;;;;;;21.52;3.80;;;17.10;99.90;;;;;;5042703;28;20053;-69
2022/06/29 07:44:47;;;;;;;19.35;3.47;;;17.20;99.90;;;;;;5041252;28;20098;-69
2022/06/29 07:47:13;;;;;;;21.48;3.75;;;17.30;99.90;;;;;;5043263;28;20102;-69
2022/06/29 07:49:38;;;;;;;14.23;3.17;;;17.50;99.90;;;;;;5043363;28;20029;-68
2022/06/29 07:52:04;;;;;;;15.52;2.75;;;17.60;99.90;;;;;;5043491;28;20296;-69
2022/06/29 07:54:30;;;;;;;19.15;3.10;;;17.40;99.40;;;;;;5043155;28;20311;-71
2022/06/29 07:56:56;;;;;;;19.77;3.30;;;17.30;99.90;;;;;;5040827;28;20241;-71
2022/06/29 07:59:22;;;;;;;13.40;2.83;;;17.20;99.90;;;;;;5038107;28;20049;-67
2022/06/29 08:01:48;;;;;;;9.73;2.10;;;17.20;99.90;;;;;;5033395;28;20044;-68
2022/06/29 08:04:14;;;;;;;12.70;2.55;;;17.10;99.90;;;;;;5033913;28;20371;-70
2022/06/29 08:06:39;;;;;;;15.98;2.85;;;17.10;99.90;;;;;;5041982;28;20049;-68
2022/06/29 08:09:05;;;;;;;19.23;3.03;;;17.10;99.90;;;;;;5042259;28;20025;-70
2022/06/29 08:11:31;;;;;;;9.05;2.42;;;17.10;99.90;;;;;;5041486;28;20083;-68
2022/06/29 08:13:57;;;;;;;12.80;2.53;;;17.20;99.90;;;;;;5041927;28;20025;-68
2022/06/29 08:16:23;;;;;;;14.40;3.35;;;17.20;99.90;;;;;;5041612;28;20096;-67
2022/06/29 08:18:49;;;;;;;9.27;2.22;;;17.30;99.90;;;;;;5041572;28;20041;-69
2022/06/29 08:21:15;;;;;;;13.00;2.35;;;17.30;99.90;;;;;;5041915;28;20033;-71
2022/06/29 08:23:40;;;;;;;14.88;2.50;;;17.40;99.90;;;;;;5042301;28;20048;-73
2022/06/29 08:26:06;;;;;;;13.95;2.65;;;17.50;99.90;;;;;;5040034;28;20089;-72
2022/06/29 08:28:32;;;;;;;15.18;2.20;;;17.60;99.90;;;;;;5042249;28;20038;-72
2022/06/29 08:30:57;;;;;;;6.88;1.70;;;17.50;99.40;;;;;;5041428;28;20041;-71
2022/06/29 08:33:23;;;;;;;13.95;2.13;;;17.40;99.90;;;;;;5042961;28;20071;-70
2022/06/29 08:35:50;;;;;;;11.07;1.95;;;17.30;99.70;;;;;;5041929;28;20064;-69
2022/06/29 08:38:16;;;;;;;27.50;3.60;;;17.30;99.80;;;;;;5056341;28;20089;-67
2022/06/29 08:40:45;;;;;;;17.48;2.40;;;17.30;99.90;;;;;;5057025;28;20052;-69
2022/06/29 08:43:12;;;;;;;20.00;3.33;;;17.40;99.90;;;;;;5057189;28;20296;-69
2022/06/29 08:45:43;;;;;;;17.77;2.33;;;17.60;99.30;;;;;;5054923;28;20260;-69
2022/06/29 08:48:10;;;;;;;11.30;1.88;;;17.60;98.00;;;;;;5040010;28;20095;-66
2022/06/29 08:50:38;;;;;;;28.08;2.85;;;17.60;97.80;;;;;;5055855;28;20053;-68
2022/06/29 08:53:07;;;;;;;7.07;1.35;;;17.70;97.10;;;;;;5042066;28;20030;-69
2022/06/29 08:55:42;;;;;;;20.83;2.92;;;17.90;97.20;;;;;;5040767;28;20029;-70
2022/06/29 08:58:12;;;;;;;15.73;2.33;;;18.10;97.00;;;;;;5023288;28;20025;-66
2022/06/29 09:00:38;;;;;;;16.33;2.38;;;18.30;96.10;;;;;;5039527;28;20095;-69
2022/06/29 09:03:04;;;;;;;8.80;1.67;;;18.50;95.90;;;;;;5039646;28;20033;-69
2022/06/29 09:05:31;;;;;;;9.45;2.00;;;18.70;94.80;;;;;;5040792;28;20044;-70
2022/06/29 09:07:57;;;;;;;14.48;2.15;;;18.80;95.60;;;;;;5040972;28;20021;-68
2022/06/29 09:10:24;;;;;;;17.15;2.13;;;19.20;95.10;;;;;;5040648;28;20025;-69
2022/06/29 09:12:52;;;;;;;14.15;1.85;;;19.50;94.20;;;;;;5040498;28;20039;-69
2022/06/29 09:15:34;;;;;;;10.20;1.27;;;19.60;93.70;;;;;;5039865;28;20033;-69
2022/06/29 09:18:01;;;;;;;10.88;2.05;;;19.50;93.20;;;;;;5040419;28;20038;-73
2022/06/29 09:20:42;;;;;;;8.50;1.67;;;19.40;93.60;;;;;;5041259;28;20022;-69
2022/06/29 09:23:09;;;;;;;14.98;1.60;;;19.20;93.50;;;;;;5039752;28;20026;-71
2022/06/29 09:25:39;;;;;;;8.52;1.60;;;19.20;93.40;;;;;;5042370;28;20033;-72
2022/06/29 09:28:19;;;;;;;7.85;1.55;;;19.30;92.70;;;;;;5041177;28;20063;-71
2022/06/29 09:30:45;;;;;;;5.78;1.10;;;19.20;93.00;;;;;;5039996;28;20028;-70
2022/06/29 09:33:11;;;;;;;10.32;1.50;;;19.30;92.80;;;;;;5041073;28;20093;-69
2022/06/29 09:35:40;;;;;;;9.45;1.70;;;19.20;91.90;;;;;;5041775;28;20376;-69
2022/06/29 09:38:23;;;;;;;11.05;1.88;;;19.20;93.20;;;;;;5056305;28;20029;-71
2022/06/29 09:41:10;;;;;;;9.65;1.50;;;19.00;94.50;;;;;;5041082;28;20114;-70
2022/06/29 09:43:47;;;;;;;6.60;0.70;;;18.70;96.80;;;;;;5040065;28;20034;-69
2022/06/29 09:46:15;;;;;;;2.75;0.65;;;18.20;97.40;;;;;;5041257;28;20036;-68
2022/06/29 09:48:42;;;;;;;3.13;0.70;;;17.80;97.90;;;;;;5056865;28;20029;-71
2022/06/29 09:54:05;;;;;;;3.92;0.80;;;18.00;99.30;;;;;;5040745;28;20068;-68
2022/06/29 09:56:31;;;;;;;4.72;0.98;;;18.20;98.50;;;;;;5041288;28;20212;-69
2022/06/29 09:58:59;;;;;;;5.45;1.23;;;18.30;98.20;;;;;;5040571;28;20026;-70
2022/06/29 10:04:13;;;;;;;5.28;1.15;;;18.70;97.60;;;;;;5040904;28;20017;-69
2022/06/29 10:06:39;;;;;;;7.13;0.85;;;18.70;95.70;;;;;;5041773;28;20485;-69
2022/06/29 10:09:06;;;;;;;4.57;0.82;;;18.70;96.80;;;;;;5042358;28;20312;-69
2022/06/29 10:15:21;;;;;;;8.75;1.52;;;19.30;96.60;;;;;;5042138;28;20029;-70
2022/06/29 10:18:14;;;;;;;3.67;0.90;;;19.80;95.90;;;;;;5044823;28;20231;-71
2022/06/29 10:20:45;;;;;;;10.32;1.58;;;20.00;93.60;;;;;;5043986;28;20248;-69
2022/06/29 10:23:48;;;;;;;13.90;1.48;;;20.00;93.20;;;;;;5041602;28;20037;-70
2022/06/29 10:26:39;;;;;;;6.88;1.02;;;20.20;92.50;;;;;;5042186;28;20097;-71
2022/06/29 10:29:26;;;;;;;11.75;0.95;;;20.50;91.60;;;;;;5041266;28;20288;-69
2022/06/29 10:32:05;;;;;;;9.27;0.80;;;20.60;91.20;;;;;;5041654;28;20110;-71
2022/06/29 10:35:06;;;;;;;5.93;1.23;;;20.70;90.80;;;;;;5042835;28;20209;-71
2022/06/29 10:37:25;;;;;;;12.05;1.15;;;20.80;91.10;;;;;;5052298;28;20017;-70
2022/06/29 10:39:53;;;;;;;6.25;0.80;;;20.80;91.40;;;;;;5041452;28;20316;-70
2022/06/29 10:45:33;;;;;;;4.70;0.98;;;21.00;90.60;;;;;;5030745;28;20051;-72
2022/06/29 10:48:14;;;;;;;4.70;1.13;;;20.70;91.20;;;;;;5038007;28;20021;-70
2022/06/29 10:50:41;;;;;;;4.43;0.50;;;20.40;91.10;;;;;;5048074;28;20068;-69
2022/06/29 10:53:10;;;;;;;4.78;0.73;;;20.50;90.40;;;;;;5058656;28;20252;-71
2022/06/29 10:55:39;;;;;;;3.10;0.52;;;20.50;90.40;;;;;;5075350;28;20037;-71
2022/06/29 10:58:04;;;;;;;2.92;0.52;;;20.60;88.90;;;;;;5043124;28;20022;-72
2022/06/29 11:00:41;;;;;;;1.80;0.55;;;20.50;89.90;;;;;;5044177;28;20048;-71
2022/06/29 11:03:17;;;;;;;5.25;0.65;;;20.40;90.00;;;;;;5044798;28;20029;-69
2022/06/29 11:14:06;;;;;;;2.30;0.50;;;19.40;88.90;;;;;;5043245;28;20055;-69
2022/06/29 11:16:37;;;;;;;4.70;0.73;;;18.80;89.20;;;;;;5042378;28;20057;-70
2022/06/29 11:19:04;;;;;;;7.20;1.15;;;18.40;90.90;;;;;;5043813;28;20040;-68
2022/06/29 11:21:30;;;;;;;2.20;0.82;;;18.20;90.80;;;;;;5044715;28;20029;-69
2022/06/29 11:23:58;;;;;;;4.45;0.88;;;18.00;92.00;;;;;;5044410;28;20029;-72
2022/06/29 11:26:25;;;;;;;14.15;1.88;;;17.80;93.70;;;;;;5042634;28;20128;-71
2022/06/29 11:28:51;;;;;;;9.05;1.50;;;17.50;96.60;;;;;;5043428;28;20110;-69
2022/06/29 11:31:18;;;;;;;6.35;1.10;;;17.10;97.80;;;;;;5041499;28;20300;-67
2022/06/29 11:33:47;;;;;;;4.05;0.93;;;16.90;98.70;;;;;;5041874;28;20189;-68
2022/06/29 11:36:19;;;;;;;7.18;1.23;;;16.90;99.40;;;;;;5076114;28;20026;-67
2022/06/29 11:38:48;;;;;;;2.78;0.80;;;16.80;99.30;;;;;;5073963;28;20025;-69
2022/06/29 11:41:17;;;;;;;2.95;0.77;;;16.70;99.10;;;;;;5041297;28;20033;-69
2022/06/29 11:43:43;;;;;;;2.10;0.60;;;16.90;99.60;;;;;;5025109;28;20032;-69
2022/06/29 11:46:27;;;;;;;2.90;0.82;;;17.10;98.20;;;;;;5042506;28;20028;-68
2022/06/29 11:51:56;;;;;;;3.17;0.57;;;18.00;97.60;;;;;;5007598;28;20277;-69
2022/06/29 11:54:50;;;;;;;2.28;0.50;;;18.40;95.90;;;;;;5041399;28;20030;-70
2022/06/29 11:57:17;;;;;;;3.35;0.75;;;18.50;93.10;;;;;;5040910;28;20098;-69
2022/06/29 11:59:45;;;;;;;4.88;0.80;;;18.70;94.90;;;;;;5040618;28;20036;-68
2022/06/29 12:02:12;;;;;;;3.65;0.70;;;19.20;94.30;;;;;;5042374;28;20057;-69
2022/06/29 12:04:40;;;;;;;5.68;0.77;;;19.30;94.50;;;;;;5040824;28;20047;-72
2022/06/29 12:07:11;;;;;;;7.05;1.10;;;19.50;94.20;;;;;;5041940;28;20460;-70
2022/06/29 12:09:39;;;;;;;3.50;1.35;;;19.80;94.00;;;;;;5039838;28;20040;-71
2022/06/29 12:12:07;;;;;;;3.80;1.17;;;20.10;94.30;;;;;;5041467;28;20055;-72
2022/06/29 12:14:33;;;;;;;4.93;1.55;;;20.20;93.20;;;;;;5056490;28;20259;-71
2022/06/29 12:16:59;;;;;;;5.97;1.75;;;20.20;93.20;;;;;;5042385;28;20049;-73
2022/06/29 12:19:25;;;;;;;2.40;1.00;;;20.30;92.00;;;;;;5041205;28;20052;-71
2022/06/29 12:21:51;;;;;;;3.95;1.40;;;20.10;92.90;;;;;;5041880;28;20205;-69
2022/06/29 12:24:17;;;;;;;3.80;0.82;;;20.10;94.00;;;;;;5057260;28;20021;-69
2022/06/29 12:26:44;;;;;;;6.13;0.88;;;20.10;94.40;;;;;;5041717;28;20033;-71
2022/06/29 12:29:09;;;;;;;2.10;0.80;;;19.80;94.20;;;;;;5041227;28;20017;-72
2022/06/29 12:31:36;;;;;;;1.52;0.70;;;19.50;94.80;;;;;;5041227;28;20090;-70
2022/06/29 12:34:04;;;;;;;1.67;0.70;;;19.50;95.80;;;;;;5072834;28;20033;-70
2022/06/29 12:36:29;;;;;;;2.33;0.57;;;19.50;95.00;;;;;;5041369;28;20033;-69
2022/06/29 12:38:56;;;;;;;3.10;0.80;;;20.00;94.90;;;;;;5038542;28;20024;-71
2022/06/29 12:41:21;;;;;;;4.03;0.80;;;20.00;95.00;;;;;;5039585;28;20099;-68
2022/06/29 12:43:47;;;;;;;1.80;0.70;;;20.40;93.60;;;;;;5041650;28;20395;-69
2022/06/29 12:46:13;;;;;;;3.00;0.80;;;20.70;94.00;;;;;;5041153;28;20037;-70
2022/06/29 12:48:42;;;;;;;2.30;0.70;;;20.80;93.60;;;;;;5039999;28;20025;-70
2022/06/29 12:51:09;;;;;;;1.67;0.90;;;20.70;93.50;;;;;;5039717;28;20049;-69
2022/06/29 12:53:35;;;;;;;4.25;0.85;;;20.30;94.70;;;;;;5040207;28;20479;-70
2022/06/29 12:56:02;;;;;;;3.35;1.02;;;20.10;94.40;;;;;;5041078;28;20348;-70
2022/06/29 12:58:28;;;;;;;3.60;0.88;;;20.10;94.50;;;;;;5040538;28;20044;-69
2022/06/29 13:00:54;;;;;;;3.35;1.05;;;20.10;95.80;;;;;;5039412;28;20060;-69
2022/06/29 13:03:19;;;;;;;2.63;0.80;;;20.00;95.50;;;;;;5040568;28;20104;-68
2022/06/29 13:05:45;;;;;;;6.97;1.00;;;19.90;95.50;;;;;;5039353;28;20043;-68
2022/06/29 13:08:11;;;;;;;2.97;0.85;;;19.90;95.10;;;;;;5040850;28;20029;-68